Time;durP1;ratioP1;P1;durP2;ratioP2;P2;SDS_P1;SDS_P2;PMS_P1;PMS_P2;Temp;Humidity;BMP_temperature;BMP_pressure;BME280_temperature;BME280_humidity;BME280_pressure;Samples;Min_cycle;Max_cycle;Signal;HPM_P1;HPM_P2
2022/08/18 00:00:35;;;;;;;5.10;4.70;;;;;;;21.89;59.82;100856.25;4953431;28;97723;-48
2022/08/18 00:03:05;;;;;;;4.30;4.10;;;;;;;21.87;59.96;100864.47;4954999;28;102316;-47
2022/08/18 00:05:31;;;;;;;4.63;4.30;;;;;;;21.86;59.94;100855.34;4956449;28;97329;-47
2022/08/18 00:07:57;;;;;;;5.00;4.60;;;;;;;21.89;60.08;100861.84;4952657;28;98615;-47
2022/08/18 00:10:23;;;;;;;8.43;4.83;;;;;;;21.87;59.77;100853.28;4954705;28;98341;-47
2022/08/18 00:12:48;;;;;;;5.50;5.10;;;;;;;21.83;59.88;100848.06;4954685;28;97154;-47
2022/08/18 00:15:15;;;;;;;4.90;4.50;;;;;;;21.82;59.89;100840.22;4951804;28;97014;-48
2022/08/18 00:17:41;;;;;;;5.33;4.60;;;;;;;21.79;59.81;100847.69;4953482;28;96849;-47
2022/08/18 00:20:10;;;;;;;4.67;4.40;;;;;;;21.79;59.81;100844.13;4954643;28;96898;-47
2022/08/18 00:22:36;;;;;;;4.70;4.40;;;;;;;21.79;60.11;100846.94;4952445;28;97704;-47
2022/08/18 00:25:02;;;;;;;4.83;4.53;;;;;;;21.80;59.97;100856.84;4953189;28;96956;-47
2022/08/18 00:27:30;;;;;;;5.30;4.90;;;;;;;21.81;60.10;100861.88;4956122;28;98469;-48
2022/08/18 00:30:00;;;;;;;5.33;4.90;;;;;;;21.82;60.05;100868.22;4954448;28;97561;-53
2022/08/18 00:32:29;;;;;;;4.70;4.40;;;;;;;21.84;60.20;100866.34;4954986;28;96765;-48
2022/08/18 00:34:55;;;;;;;4.70;4.40;;;;;;;21.82;60.07;100868.22;4949208;28;97115;-49
2022/08/18 00:37:22;;;;;;;5.47;5.13;;;;;;;21.82;60.10;100868.94;4953095;28;97064;-48
2022/08/18 00:39:50;;;;;;;6.13;4.60;;;;;;;21.81;60.09;100873.06;4954050;28;96788;-49
2022/08/18 00:42:20;;;;;;;4.63;4.23;;;;;;;21.82;60.21;100873.81;4953749;28;97256;-48
2022/08/18 00:44:45;;;;;;;5.07;4.70;;;;;;;21.80;60.21;100871.56;4952315;28;96742;-47
2022/08/18 00:47:11;;;;;;;5.07;4.67;;;;;;;21.76;60.13;100870.47;4951497;28;97175;-49
2022/08/18 00:49:41;;;;;;;4.87;4.50;;;;;;;21.75;60.09;100864.13;4952329;28;96685;-48
2022/08/18 00:52:08;;;;;;;4.63;4.33;;;;;;;21.72;60.10;100864.50;4957217;28;97333;-48
2022/08/18 00:54:34;;;;;;;4.40;4.00;;;;;;;21.71;60.29;100863.75;4950988;28;97234;-48
2022/08/18 00:57:05;;;;;;;5.20;4.83;;;;;;;21.68;60.20;100859.31;4953379;28;97151;-49
2022/08/18 00:59:41;;;;;;;5.50;4.20;;;;;;;21.67;60.32;100869.00;4952236;28;98271;-48
2022/08/18 01:02:11;;;;;;;5.50;5.10;;;;;;;21.65;60.24;100871.63;4950009;28;97134;-47
2022/08/18 01:05:05;;;;;;;5.70;4.70;;;;;;;21.64;60.46;100864.53;4955003;28;97290;-48
2022/08/18 01:07:47;;;;;;;4.23;3.90;;;;;;;21.59;60.47;100869.03;4952040;28;100541;-48
2022/08/18 01:10:20;;;;;;;5.10;4.70;;;;;;;21.56;60.06;100872.22;4954599;28;97410;-48
2022/08/18 01:12:49;;;;;;;5.60;5.10;;;;;;;21.52;60.07;100869.03;4954607;28;97175;-48
2022/08/18 01:15:18;;;;;;;5.33;4.83;;;;;;;21.47;60.04;100867.22;4956603;28;96728;-48
2022/08/18 01:23:20;;;;;;;4.40;4.10;;;;;;;21.44;60.21;100865.53;4955688;28;97409;-48
2022/08/18 01:25:59;;;;;;;5.20;4.80;;;;;;;21.44;60.30;100869.06;4959480;28;96967;-48
2022/08/18 01:28:38;;;;;;;4.80;4.33;;;;;;;21.44;60.68;100871.13;4957375;28;96852;-48
2022/08/18 01:31:05;;;;;;;4.53;4.23;;;;;;;21.43;60.24;100875.22;4955613;28;97186;-49
2022/08/18 01:33:35;;;;;;;4.13;3.83;;;;;;;21.41;60.21;100877.84;4954206;28;97137;-49
2022/08/18 01:36:11;;;;;;;5.30;4.90;;;;;;;21.40;60.58;100887.56;4956589;28;97084;-48
2022/08/18 01:38:37;;;;;;;4.70;4.40;;;;;;;21.38;60.31;100881.78;4957938;28;97267;-49
2022/08/18 01:41:03;;;;;;;4.40;4.10;;;;;;;21.37;60.28;100877.47;4956693;28;97204;-49
2022/08/18 01:43:29;;;;;;;4.17;3.87;;;;;;;21.35;60.29;100872.44;4956304;28;96723;-51
2022/08/18 01:45:56;;;;;;;5.77;4.23;;;;;;;21.34;60.43;100881.41;4955155;28;96908;-48
2022/08/18 01:48:21;;;;;;;5.80;4.30;;;;;;;21.34;60.37;100870.22;4955871;28;97133;-48
2022/08/18 01:50:48;;;;;;;5.47;5.07;;;;;;;21.33;59.75;100863.13;4955890;28;96685;-47
2022/08/18 01:53:13;;;;;;;5.20;4.80;;;;;;;21.28;60.20;100862.00;4955926;28;97032;-49
2022/08/18 01:55:43;;;;;;;4.43;4.13;;;;;;;21.21;60.15;100856.44;4959318;28;97297;-49
2022/08/18 01:58:09;;;;;;;5.03;4.73;;;;;;;21.15;60.29;100859.41;4959784;28;102861;-49
2022/08/18 02:00:35;;;;;;;5.33;4.93;;;;;;;21.11;60.29;100859.03;4961027;28;97145;-48
2022/08/18 02:03:07;;;;;;;5.03;4.73;;;;;;;21.10;60.45;100860.34;4930048;28;97355;-48
2022/08/18 02:05:37;;;;;;;4.50;4.20;;;;;;;21.10;60.37;100857.53;4925245;28;97167;-48
2022/08/18 02:08:03;;;;;;;5.00;4.50;;;;;;;21.10;60.43;100854.03;4933326;28;97049;-48
2022/08/18 02:10:29;;;;;;;4.50;4.20;;;;;;;21.09;60.48;100867.25;4926601;28;97316;-48
2022/08/18 02:12:55;;;;;;;4.30;4.00;;;;;;;21.07;60.55;100872.69;4933375;28;97412;-48
2022/08/18 02:15:20;;;;;;;3.97;3.73;;;;;;;21.05;60.54;100866.91;4937633;28;97119;-49
2022/08/18 02:17:46;;;;;;;4.83;4.23;;;;;;;21.03;60.51;100863.91;4928484;28;99278;-48
2022/08/18 02:20:15;;;;;;;4.57;4.17;;;;;;;21.02;60.44;100867.22;4939664;28;98604;-47
2022/08/18 02:22:42;;;;;;;4.80;4.50;;;;;;;21.02;60.47;100853.97;4926013;28;96928;-48
2022/08/18 02:25:08;;;;;;;4.10;3.90;;;;;;;21.04;60.65;100861.84;4935376;28;97380;-48
2022/08/18 02:27:34;;;;;;;4.07;3.77;;;;;;;21.05;60.61;100866.91;4932373;28;97774;-48
2022/08/18 02:30:00;;;;;;;4.40;4.10;;;;;;;21.02;60.53;100873.56;4916392;28;96776;-49
2022/08/18 02:32:27;;;;;;;5.93;4.13;;;;;;;21.04;60.53;100856.25;4938427;28;96789;-49
2022/08/18 02:34:53;;;;;;;4.83;4.43;;;;;;;21.02;60.55;100865.19;4922769;28;96838;-49
2022/08/18 02:37:18;;;;;;;5.97;5.50;;;;;;;21.01;60.58;100869.28;4948750;28;97189;-49
2022/08/18 02:39:43;;;;;;;6.67;6.17;;;;;;;21.01;60.63;100865.75;4934028;28;96975;-49
2022/08/18 02:42:09;;;;;;;6.67;6.17;;;;;;;21.01;60.83;100868.53;4921137;28;97009;-49
2022/08/18 02:44:35;;;;;;;7.03;6.43;;;;;;;21.02;60.89;100867.22;4938095;28;97054;-48
2022/08/18 02:47:00;;;;;;;6.70;6.20;;;;;;;21.03;60.87;100871.53;4957675;28;97716;-49
2022/08/18 02:49:26;;;;;;;7.03;6.43;;;;;;;21.04;60.85;100875.81;4955939;28;96821;-49
2022/08/18 02:51:53;;;;;;;7.97;7.33;;;;;;;21.04;60.88;100864.63;4954583;28;96804;-48
2022/08/18 02:54:22;;;;;;;9.33;8.47;;;;;;;21.02;60.92;100873.56;4954599;28;97277;-49
2022/08/18 02:56:50;;;;;;;7.90;6.80;;;;;;;21.07;61.02;100869.13;4956838;28;97039;-48
2022/08/18 02:59:21;;;;;;;6.20;5.70;;;;;;;21.08;61.03;100868.56;4953180;28;97220;-48
2022/08/18 03:01:50;;;;;;;9.03;8.23;;;;;;;21.11;61.18;100880.69;4955086;28;97158;-48
2022/08/18 03:04:22;;;;;;;10.70;9.60;;;;;;;21.10;61.28;100893.19;4955521;28;96615;-49
2022/08/18 03:06:48;;;;;;;11.87;10.17;;;;;;;21.12;61.13;100885.72;4956709;28;98546;-49
2022/08/18 03:09:16;;;;;;;11.27;10.20;;;;;;;21.15;61.32;100895.03;4959566;28;97215;-48
2022/08/18 03:11:42;;;;;;;11.13;10.13;;;;;;;21.13;61.28;100900.44;4952053;28;97802;-47
2022/08/18 03:14:07;;;;;;;12.17;10.90;;;;;;;21.14;61.24;100887.97;4942381;28;97384;-49
2022/08/18 03:16:36;;;;;;;14.03;10.57;;;;;;;21.16;61.23;100886.09;4953463;28;96989;-48
2022/08/18 03:19:02;;;;;;;12.13;10.93;;;;;;;21.14;61.33;100879.56;4956600;28;96669;-48
2022/08/18 03:21:30;;;;;;;11.40;10.20;;;;;;;21.13;61.22;100878.81;4955271;28;97276;-49
2022/08/18 03:23:55;;;;;;;12.13;11.03;;;;;;;21.13;61.46;100875.25;4953223;28;97132;-49
2022/08/18 03:26:22;;;;;;;11.60;10.50;;;;;;;21.12;61.41;100882.19;4949590;28;97368;-48
2022/08/18 03:28:51;;;;;;;10.70;9.60;;;;;;;21.15;61.46;100892.25;4955473;28;97668;-48
2022/08/18 03:31:18;;;;;;;9.43;8.53;;;;;;;21.15;61.58;100883.84;4953539;28;97226;-49
2022/08/18 03:33:45;;;;;;;10.80;9.80;;;;;;;21.15;61.47;100884.59;4954634;28;96736;-48
2022/08/18 03:36:14;;;;;;;13.10;11.70;;;;;;;21.14;61.52;100894.31;4950136;28;97836;-49
2022/08/18 03:38:42;;;;;;;12.33;10.70;;;;;;;21.14;61.42;100890.75;4954538;28;97896;-48
2022/08/18 03:41:08;;;;;;;11.20;10.17;;;;;;;21.14;61.51;100885.16;4952485;28;97558;-49
2022/08/18 03:43:34;;;;;;;12.43;11.00;;;;;;;21.13;61.49;100880.88;4954401;28;97051;-48
2022/08/18 03:46:05;;;;;;;14.00;10.17;;;;;;;21.13;61.66;100875.25;4948202;28;97555;-48
2022/08/18 03:48:32;;;;;;;11.93;10.80;;;;;;;21.12;61.55;100877.31;4954719;28;97326;-50
2022/08/18 03:51:06;;;;;;;11.20;10.07;;;;;;;21.15;61.74;100878.25;4951563;28;97502;-48
2022/08/18 03:53:33;;;;;;;10.63;9.70;;;;;;;21.17;61.78;100878.44;4928319;28;97276;-48
2022/08/18 03:55:59;;;;;;;10.80;9.80;;;;;;;21.18;61.76;100885.53;4957014;28;96736;-48
2022/08/18 03:58:25;;;;;;;12.50;11.30;;;;;;;21.19;61.71;100887.00;4955895;28;97272;-48
2022/08/18 04:00:51;;;;;;;12.33;11.20;;;;;;;21.22;61.82;100883.09;4952158;28;97065;-47
2022/08/18 04:03:16;;;;;;;12.77;11.43;;;;;;;21.25;61.75;100887.59;4956241;28;97129;-49
2022/08/18 04:05:41;;;;;;;12.17;11.07;;;;;;;21.28;61.76;100886.44;4954937;28;109201;-48
2022/08/18 04:08:07;;;;;;;12.77;11.53;;;;;;;21.29;61.91;100890.75;4951266;28;97149;-50
2022/08/18 04:10:34;;;;;;;13.97;11.00;;;;;;;21.33;62.04;100886.25;4955259;28;97412;-49
2022/08/18 04:13:01;;;;;;;13.53;12.20;;;;;;;21.35;62.06;100882.91;4954764;28;98991;-48
2022/08/18 04:15:26;;;;;;;13.57;12.20;;;;;;;21.37;62.03;100886.63;4951239;28;97147;-49
2022/08/18 04:17:53;;;;;;;14.47;12.97;;;;;;;21.39;62.13;100883.25;4953849;28;97184;-48
2022/08/18 04:20:19;;;;;;;13.30;11.90;;;;;;;21.41;62.10;100897.44;4952382;28;97272;-48
2022/08/18 04:22:45;;;;;;;13.47;11.47;;;;;;;21.43;62.15;100889.22;4952948;28;96840;-48
2022/08/18 04:25:11;;;;;;;12.77;11.47;;;;;;;21.44;62.28;100893.53;4953760;28;97405;-47
2022/08/18 04:27:41;;;;;;;14.57;13.17;;;;;;;21.44;62.30;100894.28;4952367;28;97372;-48
2022/08/18 04:30:08;;;;;;;17.57;15.70;;;;;;;21.45;62.38;100895.00;4950490;28;97144;-48
2022/08/18 04:32:33;;;;;;;16.43;14.77;;;;;;;21.46;62.41;100899.31;4953430;28;97301;-49
2022/08/18 04:34:59;;;;;;;17.40;15.53;;;;;;;21.49;62.46;100904.50;4955620;28;97167;-49
2022/08/18 04:37:25;;;;;;;17.87;16.10;;;;;;;21.52;62.48;100913.84;4954526;28;102218;-49
2022/08/18 04:39:50;;;;;;;16.20;14.50;;;;;;;21.55;62.48;100907.13;4953500;28;97090;-49
2022/08/18 04:42:16;;;;;;;16.53;14.80;;;;;;;21.57;62.64;100918.50;4953970;28;97396;-48
2022/08/18 04:44:41;;;;;;;16.73;15.00;;;;;;;21.60;62.50;100906.19;4948880;28;97014;-48
2022/08/18 04:47:12;;;;;;;17.50;15.30;;;;;;;21.62;62.50;100909.19;4951672;28;97122;-48
2022/08/18 04:49:37;;;;;;;17.63;15.60;;;;;;;21.64;62.44;100920.56;4951741;28;97090;-49
2022/08/18 04:54:49;;;;;;;18.53;14.87;;;;;;;21.67;62.43;100930.63;4947268;28;102038;-50
2022/08/18 04:57:17;;;;;;;20.37;17.30;;;;;;;21.69;62.59;100930.06;4953481;28;97471;-48
2022/08/18 04:59:45;;;;;;;17.30;14.43;;;;;;;21.71;62.58;100939.38;4954528;28;97005;-49
2022/08/18 05:02:13;;;;;;;18.70;15.70;;;;;;;21.73;62.56;100942.38;4955619;28;96857;-48
2022/08/18 05:04:40;;;;;;;20.27;16.43;;;;;;;21.76;62.62;100940.50;4955122;28;97571;-47
2022/08/18 05:07:09;;;;;;;16.13;14.40;;;;;;;21.77;62.61;100950.41;4952447;28;97095;-49
2022/08/18 05:09:35;;;;;;;21.70;16.90;;;;;;;21.78;62.54;100963.81;4953181;28;97202;-47
2022/08/18 05:12:02;;;;;;;19.00;15.57;;;;;;;21.79;62.66;100956.19;4956083;28;97049;-49
2022/08/18 05:14:28;;;;;;;19.97;16.93;;;;;;;21.79;62.73;100954.13;4947889;28;102425;-49
2022/08/18 05:16:57;;;;;;;18.33;15.07;;;;;;;21.81;62.82;100959.91;4951858;28;97143;-48
2022/08/18 05:19:25;;;;;;;19.97;16.60;;;;;;;21.81;62.75;100959.91;4953381;28;97475;-48
2022/08/18 05:21:52;;;;;;;19.50;15.97;;;;;;;21.82;62.83;100961.38;4956438;28;96987;-49
2022/08/18 05:24:19;;;;;;;17.20;15.30;;;;;;;21.84;62.86;100967.19;4955330;28;99879;-49
2022/08/18 05:26:44;;;;;;;19.20;15.40;;;;;;;21.87;62.77;100971.69;4955331;28;101940;-55
2022/08/18 05:29:10;;;;;;;20.20;16.13;;;;;;;21.90;62.96;100964.97;4954077;28;97189;-48
2022/08/18 05:31:35;;;;;;;19.43;16.60;;;;;;;21.91;62.90;100969.25;4953229;28;97178;-49
2022/08/18 05:34:02;;;;;;;19.13;16.60;;;;;;;21.93;62.97;100968.69;4950859;28;97487;-48
2022/08/18 05:36:50;;;;;;;19.60;17.50;;;;;;;21.96;63.30;100965.50;4953482;28;97047;-49
2022/08/18 05:39:32;;;;;;;23.10;17.50;;;;;;;21.99;63.06;100961.59;4954858;28;96873;-49
2022/08/18 05:42:06;;;;;;;22.47;18.10;;;;;;;22.01;62.91;100964.56;4953585;28;97181;-48
2022/08/18 05:44:40;;;;;;;22.37;16.63;;;;;;;22.07;63.05;100975.56;4955789;28;100348;-49
2022/08/18 05:47:12;;;;;;;23.03;18.80;;;;;;;22.10;62.87;100971.63;4951952;28;97339;-48
2022/08/18 05:49:38;;;;;;;24.70;20.43;;;;;;;22.12;62.82;100975.38;4954568;28;97130;-49
2022/08/18 05:52:14;;;;;;;23.70;19.17;;;;;;;22.15;62.92;100977.03;4952012;28;96994;-49
2022/08/18 05:58:16;;;;;;;22.80;19.37;;;;;;;22.18;62.90;100966.75;4948882;28;101294;-48
2022/08/18 06:00:51;;;;;;;24.03;19.10;;;;;;;22.21;62.77;100969.16;4958457;28;97042;-48
2022/08/18 06:03:24;;;;;;;24.47;19.70;;;;;;;22.25;62.84;100972.34;4953062;28;96960;-50
2022/08/18 06:06:02;;;;;;;23.90;19.67;;;;;;;22.29;62.88;100967.06;4945480;28;98681;-48
2022/08/18 06:08:37;;;;;;;24.37;18.57;;;;;;;22.34;62.81;100968.91;4960397;28;97633;-49
2022/08/18 06:11:02;;;;;;;26.77;20.40;;;;;;;22.42;62.72;100968.13;4957219;28;97302;-48
2022/08/18 06:13:32;;;;;;;24.73;19.80;;;;;;;22.45;62.74;100967.75;4954589;28;97183;-49
2022/08/18 06:16:10;;;;;;;26.93;21.30;;;;;;;22.51;63.08;100961.94;4958495;28;97263;-48
2022/08/18 06:19:02;;;;;;;25.00;19.93;;;;;;;22.56;63.44;100972.94;4955866;28;103369;-49
2022/08/18 06:22:02;;;;;;;23.90;18.70;;;;;;;22.62;62.97;100964.31;4953163;28;96992;-48
2022/08/18 06:25:00;;;;;;;24.50;19.90;;;;;;;22.66;63.04;100970.28;4953132;28;97178;-47
2022/08/18 06:27:50;;;;;;;25.70;19.17;;;;;;;22.66;63.08;100970.28;4955274;28;101769;-49
2022/08/18 06:30:23;;;;;;;24.97;20.67;;;;;;;22.68;62.81;100976.06;4956776;28;102792;-48
2022/08/18 06:33:09;;;;;;;23.13;19.07;;;;;;;22.69;62.84;100977.56;4952411;28;97485;-48
2022/08/18 06:35:47;;;;;;;26.30;19.77;;;;;;;22.70;62.78;100979.03;4956572;28;97345;-48
2022/08/18 06:38:44;;;;;;;23.00;19.27;;;;;;;22.71;62.96;100984.09;4956140;28;102312;-48
2022/08/18 06:41:22;;;;;;;22.93;19.07;;;;;;;22.76;62.78;100991.53;4949557;28;100046;-47
2022/08/18 06:43:58;;;;;;;24.80;19.37;;;;;;;22.80;62.91;100996.78;4955001;28;98836;-47
2022/08/18 06:46:32;;;;;;;21.23;17.00;;;;;;;22.81;62.92;100996.19;4960208;28;96976;-49
2022/08/18 06:49:03;;;;;;;20.73;17.43;;;;;;;22.84;62.74;100992.25;4957677;28;102985;-48
2022/08/18 06:51:29;;;;;;;24.97;17.67;;;;;;;22.87;62.75;100998.78;4958323;28;96931;-48
2022/08/18 06:54:02;;;;;;;22.00;17.77;;;;;;;22.89;62.79;100998.97;4955086;28;97419;-48
2022/08/18 06:56:37;;;;;;;20.33;17.60;;;;;;;22.90;63.05;101006.06;4957874;28;96781;-48
2022/08/18 06:59:14;;;;;;;23.37;18.47;;;;;;;22.91;63.07;101007.56;4953643;28;100561;-49
2022/08/18 07:01:41;;;;;;;18.60;16.60;;;;;;;22.91;62.73;101010.38;4955476;28;101755;-48
2022/08/18 07:04:06;;;;;;;20.23;17.23;;;;;;;22.94;62.91;101014.81;4951683;28;96583;-48
2022/08/18 07:06:32;;;;;;;18.63;16.50;;;;;;;22.95;62.75;101011.47;4954576;28;97062;-49
2022/08/18 07:09:24;;;;;;;19.77;16.30;;;;;;;22.98;62.74;101017.97;4958858;28;98497;-48
2022/08/18 07:12:07;;;;;;;17.57;15.20;;;;;;;22.99;62.81;101025.09;4952127;28;101757;-48
2022/08/18 07:14:46;;;;;;;19.37;16.40;;;;;;;22.99;62.85;101022.28;4955165;28;96939;-48
2022/08/18 07:17:23;;;;;;;21.30;16.30;;;;;;;22.99;62.82;101022.28;4952207;28;96730;-49
2022/08/18 07:20:03;;;;;;;18.37;15.27;;;;;;;22.99;62.98;101027.91;4954761;28;101199;-48
2022/08/18 07:22:28;;;;;;;18.47;15.90;;;;;;;22.98;62.72;101027.16;4954996;28;100162;-48
2022/08/18 07:24:57;;;;;;;20.60;16.27;;;;;;;22.98;62.86;101023.59;4952594;28;97420;-49
2022/08/18 07:27:43;;;;;;;17.93;15.47;;;;;;;22.99;63.08;101019.47;4955748;28;97119;-49
2022/08/18 07:30:18;;;;;;;17.73;15.40;;;;;;;22.99;62.68;101023.03;4952838;28;102391;-49
2022/08/18 07:33:12;;;;;;;18.63;15.87;;;;;;;23.05;62.67;101028.41;4953642;28;97338;-49
2022/08/18 07:35:49;;;;;;;20.10;16.17;;;;;;;23.06;62.66;101025.03;4956370;28;98037;-49
2022/08/18 07:38:28;;;;;;;19.33;16.43;;;;;;;23.09;62.78;101029.50;4954653;28;96929;-50
2022/08/18 07:41:06;;;;;;;23.67;15.57;;;;;;;23.11;62.62;101020.50;4952997;28;96828;-49
2022/08/18 07:44:11;;;;;;;19.00;15.43;;;;;;;23.13;62.97;101022.78;4922574;28;97596;-49
2022/08/18 07:46:57;;;;;;;21.00;16.40;;;;;;;23.15;62.85;101029.31;4934616;28;96944;-48
2022/08/18 07:49:27;;;;;;;20.17;16.50;;;;;;;23.16;62.65;101027.97;4930821;28;97009;-49
2022/08/18 07:52:03;;;;;;;19.93;16.37;;;;;;;23.17;62.78;101032.28;4932683;28;97779;-49
2022/08/18 07:54:41;;;;;;;21.23;17.57;;;;;;;23.18;62.89;101028.13;4924256;28;98081;-47
2022/08/18 07:57:23;;;;;;;17.70;15.17;;;;;;;23.19;62.63;101035.25;4937443;28;97181;-49
2022/08/18 08:00:06;;;;;;;18.27;13.97;;;;;;;23.20;62.67;101038.81;4936893;28;96969;-49
2022/08/18 08:02:46;;;;;;;18.00;14.87;;;;;;;23.22;62.40;101048.13;4952672;28;103047;-49
2022/08/18 08:05:20;;;;;;;20.13;14.67;;;;;;;23.22;62.63;101048.13;4953506;28;97184;-49
2022/08/18 08:08:08;;;;;;;18.90;14.60;;;;;;;23.28;62.69;101045.13;4957871;28;96815;-49
2022/08/18 08:11:03;;;;;;;17.00;13.60;;;;;;;23.27;62.64;101038.75;4956688;28;98295;-48
2022/08/18 08:13:53;;;;;;;17.97;14.07;;;;;;;23.25;62.40;101047.00;4951258;28;102050;-47
2022/08/18 08:16:47;;;;;;;17.57;13.93;;;;;;;23.27;62.45;101043.63;4957231;28;100241;-49
2022/08/18 08:19:45;;;;;;;19.27;13.23;;;;;;;23.28;62.46;101050.75;4947785;28;97529;-48
2022/08/18 08:22:33;;;;;;;13.33;11.93;;;;;;;23.25;62.02;101047.00;4955765;28;97061;-48
2022/08/18 08:25:15;;;;;;;14.87;11.80;;;;;;;23.27;62.07;101054.84;4926312;28;102388;-48
2022/08/18 08:27:47;;;;;;;16.50;13.57;;;;;;;23.25;61.99;101060.28;4948833;28;97316;-48
2022/08/18 08:30:18;;;;;;;17.07;13.00;;;;;;;23.26;62.22;101064.59;4956412;28;97320;-49
2022/08/18 08:32:59;;;;;;;14.93;12.57;;;;;;;23.27;62.07;101064.03;4957802;28;96996;-48
2022/08/18 08:35:30;;;;;;;17.77;13.97;;;;;;;23.29;62.25;101061.38;4952147;28;102999;-49
2022/08/18 08:38:01;;;;;;;14.80;12.40;;;;;;;23.29;61.85;101058.56;4955138;28;100384;-48
2022/08/18 08:40:37;;;;;;;16.73;13.33;;;;;;;23.31;62.09;101055.94;4954430;28;98678;-49
2022/08/18 08:43:09;;;;;;;15.27;11.57;;;;;;;23.34;61.78;101054.84;4954121;28;96954;-49
2022/08/18 08:46:00;;;;;;;15.37;12.20;;;;;;;23.38;62.04;101058.00;4955141;28;103431;-49
2022/08/18 08:48:29;;;;;;;15.03;12.40;;;;;;;23.42;62.06;101054.78;4951509;28;100572;-46
2022/08/18 08:51:20;;;;;;;12.50;11.17;;;;;;;23.47;61.85;101053.81;4954902;28;96848;-48
2022/08/18 08:54:11;;;;;;;16.13;13.40;;;;;;;23.51;61.77;101057.69;4953494;28;97226;-48
2022/08/18 08:56:44;;;;;;;14.30;10.87;;;;;;;23.60;61.68;101050.69;4952863;28;101318;-48
2022/08/18 08:59:14;;;;;;;16.47;13.17;;;;;;;23.63;61.65;101046.75;4944786;28;97199;-49
2022/08/18 09:01:55;;;;;;;17.37;13.57;;;;;;;23.67;61.50;101053.47;4951108;28;97883;-49
2022/08/18 09:04:26;;;;;;;15.60;12.67;;;;;;;23.73;61.69;101058.84;4954808;28;97416;-48
2022/08/18 09:07:31;;;;;;;14.77;12.80;;;;;;;23.75;61.24;101054.13;4951403;28;102040;-49
2022/08/18 09:09:56;;;;;;;15.97;13.17;;;;;;;23.82;61.40;101053.31;4947827;28;100382;-49
2022/08/18 09:13:00;;;;;;;12.90;11.43;;;;;;;23.92;61.42;101063.94;4958368;28;97262;-49
2022/08/18 09:16:00;;;;;;;12.50;9.87;;;;;;;23.96;60.77;101062.16;4927197;28;96924;-48
2022/08/18 09:18:53;;;;;;;11.97;10.23;;;;;;;23.98;61.06;101059.56;4957943;28;102913;-47
2022/08/18 09:21:37;;;;;;;12.47;10.73;;;;;;;24.03;60.76;101060.59;4953113;28;101591;-48
2022/08/18 09:24:11;;;;;;;12.80;9.87;;;;;;;24.12;60.83;101060.00;4951646;28;96774;-47
2022/08/18 09:26:46;;;;;;;9.73;8.73;;;;;;;24.18;60.52;101061.22;4952514;28;97381;-48
2022/08/18 09:29:23;;;;;;;11.10;9.80;;;;;;;24.23;61.01;101057.44;4951345;28;101529;-48
2022/08/18 09:32:17;;;;;;;10.83;9.77;;;;;;;24.25;60.55;101063.22;4953920;28;101329;-48
2022/08/18 09:35:07;;;;;;;11.00;9.23;;;;;;;24.29;60.51;101062.81;4957554;28;97193;-49
2022/08/18 09:43:39;;;;;;;8.20;7.50;;;;;;;24.52;60.36;101064.06;4959286;28;101182;-49
2022/08/18 09:46:06;;;;;;;9.10;7.83;;;;;;;24.58;60.23;101058.16;4954042;28;97722;-49
2022/08/18 09:48:36;;;;;;;9.37;8.40;;;;;;;24.64;60.33;101055.81;4955404;28;97248;-50
2022/08/18 09:51:30;;;;;;;9.77;8.73;;;;;;;24.72;59.92;101052.94;4957195;28;101768;-48
2022/08/18 09:54:12;;;;;;;9.63;8.60;;;;;;;24.81;60.09;101055.09;4958514;28;101818;-48
2022/08/18 09:56:49;;;;;;;9.60;8.60;;;;;;;24.90;59.81;101055.13;4956889;28;97096;-49
2022/08/18 09:59:38;;;;;;;7.80;6.87;;;;;;;24.97;59.57;101053.56;4952532;28;97952;-48
2022/08/18 10:02:10;;;;;;;8.53;7.80;;;;;;;25.06;59.19;101055.69;4949195;28;99255;-48
2022/08/18 10:04:47;;;;;;;8.07;7.27;;;;;;;25.12;59.08;101053.34;4954636;28;98982;-48
2022/08/18 10:07:29;;;;;;;7.33;6.60;;;;;;;25.24;58.99;101055.03;4957492;28;97912;-49
2022/08/18 10:10:22;;;;;;;9.20;7.43;;;;;;;25.39;58.98;101044.84;4957231;28;97713;-49
2022/08/18 10:13:14;;;;;;;8.57;6.57;;;;;;;25.53;58.49;101052.38;4956299;28;97506;-49
2022/08/18 10:15:57;;;;;;;8.17;7.43;;;;;;;25.68;58.22;101057.00;4953827;28;102630;-50
2022/08/18 10:18:33;;;;;;;7.40;6.70;;;;;;;25.83;57.55;101062.38;4956970;28;98972;-49
2022/08/18 10:21:07;;;;;;;7.80;7.00;;;;;;;25.91;57.75;101055.28;4954862;28;96903;-48
2022/08/18 10:23:45;;;;;;;6.03;5.57;;;;;;;26.09;56.95;101055.94;4955197;28;100509;-49
2022/08/18 10:26:28;;;;;;;6.90;5.70;;;;;;;26.13;57.37;101058.28;4955264;28;100043;-49
2022/08/18 10:29:01;;;;;;;6.30;5.70;;;;;;;26.13;57.55;101061.13;4958825;28;96985;-49
2022/08/18 10:31:29;;;;;;;6.70;6.10;;;;;;;26.16;57.56;101063.50;4956440;28;96732;-49
2022/08/18 10:34:09;;;;;;;6.90;5.80;;;;;;;26.20;56.58;101060.25;4954697;28;100232;-49
2022/08/18 10:36:46;;;;;;;6.33;5.77;;;;;;;26.20;56.88;101063.81;4958931;28;97403;-49
2022/08/18 10:39:18;;;;;;;6.07;5.57;;;;;;;26.24;57.22;101069.75;4953352;28;97272;-47
2022/08/18 10:41:55;;;;;;;7.80;5.90;;;;;;;26.30;57.16;101067.38;4961049;28;97097;-49
2022/08/18 10:44:22;;;;;;;6.27;5.77;;;;;;;26.33;57.03;101071.84;4944997;28;102097;-50
2022/08/18 10:46:49;;;;;;;6.67;6.07;;;;;;;26.36;56.84;101067.84;4954538;28;101657;-50
2022/08/18 10:49:27;;;;;;;5.60;5.10;;;;;;;26.36;56.36;101070.66;4953734;28;97001;-49
2022/08/18 10:52:22;;;;;;;6.60;6.00;;;;;;;26.40;56.05;101073.78;4956454;28;97001;-49
2022/08/18 10:54:50;;;;;;;5.70;5.20;;;;;;;26.51;56.55;101070.34;4954285;28;101951;-49
2022/08/18 10:57:27;;;;;;;5.90;5.50;;;;;;;26.60;55.94;101063.94;4955700;28;98284;-49
2022/08/18 11:00:09;;;;;;;5.00;4.70;;;;;;;26.64;56.08;101069.16;4955341;28;96949;-48
2022/08/18 11:02:53;;;;;;;5.27;4.77;;;;;;;26.75;56.03;101068.56;4955816;28;97681;-49
2022/08/18 11:05:23;;;;;;;5.10;4.80;;;;;;;26.83;55.80;101071.22;4956601;28;100516;-49
2022/08/18 11:07:53;;;;;;;6.50;5.40;;;;;;;26.90;55.58;101075.97;4958150;28;97225;-49
2022/08/18 11:10:33;;;;;;;6.17;5.30;;;;;;;26.98;55.48;101070.88;4955535;28;96689;-49
2022/08/18 11:13:30;;;;;;;5.57;5.00;;;;;;;27.06;54.80;101068.66;4957886;28;96947;-48
2022/08/18 11:16:26;;;;;;;4.97;4.60;;;;;;;27.14;54.85;101066.41;4951375;28;101878;-50
2022/08/18 11:19:02;;;;;;;5.53;5.10;;;;;;;27.28;54.72;101065.28;4943455;28;101506;-49
2022/08/18 11:21:39;;;;;;;5.27;4.80;;;;;;;27.29;54.28;101057.56;4961048;28;96897;-49
2022/08/18 11:24:19;;;;;;;5.80;4.63;;;;;;;27.27;54.58;101054.59;4954919;28;96816;-49
2022/08/18 11:26:49;;;;;;;5.07;4.10;;;;;;;27.31;54.75;101052.81;4955869;28;97398;-49
2022/08/18 11:29:23;;;;;;;5.20;4.70;;;;;;;27.41;54.30;101055.63;4957434;28;97138;-49
2022/08/18 11:31:54;;;;;;;5.00;4.60;;;;;;;27.46;54.18;101046.06;4960232;28;96980;-48
2022/08/18 11:34:34;;;;;;;4.60;4.20;;;;;;;27.55;54.33;101041.69;4954939;28;97129;-49
2022/08/18 11:37:03;;;;;;;4.93;4.50;;;;;;;27.63;54.17;101040.16;4953677;28;97218;-48
2022/08/18 11:39:29;;;;;;;5.20;4.80;;;;;;;27.71;53.92;101037.91;4958700;28;98703;-48
2022/08/18 11:41:56;;;;;;;4.40;4.00;;;;;;;27.85;53.54;101038.13;4953963;28;97127;-49
2022/08/18 11:44:30;;;;;;;4.10;3.80;;;;;;;27.91;53.32;101042.09;4958661;28;96958;-49
2022/08/18 11:47:08;;;;;;;7.10;4.80;;;;;;;27.95;52.44;101052.94;4954872;28;97825;-49
2022/08/18 11:49:36;;;;;;;4.47;4.17;;;;;;;27.89;52.90;101061.03;4961157;28;98645;-49
2022/08/18 11:52:24;;;;;;;5.20;4.80;;;;;;;27.89;51.84;101050.41;4955114;28;96846;-48
2022/08/18 11:54:50;;;;;;;4.77;4.47;;;;;;;27.84;53.04;101053.59;4959669;28;97572;-48
2022/08/18 11:57:40;;;;;;;4.83;4.43;;;;;;;27.90;52.31;101051.91;4957176;28;97300;-48
2022/08/18 12:00:52;;;;;;;5.47;5.07;;;;;;;28.12;51.58;101049.84;4954930;28;101626;-49